Time;durP1;ratioP1;P1;durP2;ratioP2;P2;SDS_P1;SDS_P2;PMS_P1;PMS_P2;Temp;Humidity;BMP_temperature;BMP_pressure;BME280_temperature;BME280_humidity;BME280_pressure;Samples;Min_cycle;Max_cycle;Signal;HPM_P1;HPM_P2
2023/08/31 00:00:51;;;;;;;;;;;;;;;23.72;33.09;100010.94;5114590;28;20344;-67
2023/08/31 00:03:16;;;;;;;;;;;;;;;23.76;33.16;100011.16;5095738;28;19934;-67
2023/08/31 00:05:42;;;;;;;;;;;;;;;23.73;33.33;100012.56;5093755;28;19916;-67
2023/08/31 00:08:08;;;;;;;;;;;;;;;23.73;33.27;100020.78;5093762;28;19973;-67
2023/08/31 00:10:34;;;;;;;;;;;;;;;23.74;33.35;100019.69;5092986;28;19912;-67
2023/08/31 00:13:00;;;;;;;;;;;;;;;23.69;33.29;100022.47;5092435;28;20372;-67
2023/08/31 00:15:25;;;;;;;;;;;;;;;23.66;33.25;100019.50;5073396;28;20025;-67
2023/08/31 00:17:51;;;;;;;;;;;;;;;23.65;33.54;100021.44;5073571;28;19958;-67
2023/08/31 00:20:17;;;;;;;;;;;;;;;23.67;33.41;100015.66;5073331;28;20448;-67
2023/08/31 00:22:42;;;;;;;;;;;;;;;23.65;33.54;100026.09;5091473;28;19912;-67
2023/08/31 00:25:08;;;;;;;;;;;;;;;23.65;33.46;100026.91;5093332;28;19998;-67
2023/08/31 00:27:33;;;;;;;;;;;;;;;23.65;33.67;100017.88;5092118;28;19912;-67
2023/08/31 00:29:59;;;;;;;;;;;;;;;23.65;33.71;100026.91;5093715;28;19912;-67
2023/08/31 00:32:24;;;;;;;;;;;;;;;23.62;33.62;100023.94;5092051;28;20007;-66
2023/08/31 00:34:50;;;;;;;;;;;;;;;23.67;33.67;100021.16;5091250;28;19916;-67
2023/08/31 00:37:16;;;;;;;;;;;;;;;23.65;33.78;100028.84;5093590;28;19965;-66
2023/08/31 00:39:41;;;;;;;;;;;;;;;23.64;33.65;100025.28;5091863;28;19955;-67
2023/08/31 00:42:07;;;;;;;;;;;;;;;23.66;33.75;100030.47;5092816;28;19920;-67
2023/08/31 00:44:32;;;;;;;;;;;;;;;23.68;33.71;100029.09;5093104;28;20010;-67
2023/08/31 00:46:58;;;;;;;;;;;;;;;23.69;33.58;100033.44;5092855;28;20019;-67
2023/08/31 00:49:23;;;;;;;;;;;;;;;23.69;33.54;100033.44;5092947;28;19951;-67
2023/08/31 00:51:50;;;;;;;;;;;;;;;23.73;33.59;100029.00;5093159;28;20014;-67
2023/08/31 00:54:18;;;;;;;;;;;;;;;23.71;33.90;100035.91;5092463;28;19919;-67
2023/08/31 00:56:45;;;;;;;;;;;;;;;23.70;33.83;100024.13;5110926;28;19924;-67
2023/08/31 00:59:10;;;;;;;;;;;;;;;23.65;33.54;100034.34;5113573;28;19911;-67
2023/08/31 01:02:05;;;;;;;;;;;;;;;23.69;33.97;100035.38;5109063;28;19919;-67
2023/08/31 01:04:36;;;;;;;;;;;;;;;23.74;33.65;100029.84;5037304;28;19975;-67
2023/08/31 01:07:20;;;;;;;;;;;;;;;23.66;33.28;100034.03;5092932;28;19940;-67
2023/08/31 01:10:05;;;;;;;;;;;;;;;23.62;33.77;100030.22;5092797;28;19912;-67
2023/08/31 01:12:43;;;;;;;;;;;;;;;23.58;33.78;100029.19;5074056;28;19970;-67
2023/08/31 01:15:12;;;;;;;;;;;;;;;23.56;33.42;100028.66;5072554;28;19950;-67
2023/08/31 01:17:42;;;;;;;;;;;;;;;23.49;33.71;100030.94;5079669;28;19939;-67
2023/08/31 01:20:09;;;;;;;;;;;;;;;23.44;33.81;100022.75;5093551;28;19920;-67
2023/08/31 01:22:42;;;;;;;;;;;;;;;23.38;33.77;100022.00;5096887;28;20317;-66
2023/08/31 01:25:09;;;;;;;;;;;;;;;23.30;33.64;100026.19;5096844;28;20249;-66
2023/08/31 01:27:34;;;;;;;;;;;;;;;23.28;33.71;100033.06;5096742;28;20369;-66
2023/08/31 01:30:00;;;;;;;;;;;;;;;23.24;34.02;100026.53;5097111;28;19965;-66
2023/08/31 01:32:26;;;;;;;;;;;;;;;23.26;34.05;100029.81;5096916;28;19912;-66
2023/08/31 01:34:52;;;;;;;;;;;;;;;23.27;33.70;100035.00;5097002;28;19919;-66
2023/08/31 01:37:19;;;;;;;;;;;;;;;23.26;33.78;100027.88;5096536;28;20014;-67
2023/08/31 01:39:56;;;;;;;;;;;;;;;23.22;33.91;100028.75;5096574;28;19919;-66
2023/08/31 01:42:22;;;;;;;;;;;;;;;23.21;33.95;100038.06;5096787;28;19912;-66
2023/08/31 01:44:48;;;;;;;;;;;;;;;23.16;34.14;100037.03;5096558;28;20008;-66
2023/08/31 01:47:15;;;;;;;;;;;;;;;23.16;34.04;100044.41;5096667;28;20007;-67
2023/08/31 01:49:40;;;;;;;;;;;;;;;23.14;34.34;100046.63;5096724;28;20340;-67
2023/08/31 01:52:06;;;;;;;;;;;;;;;23.08;33.99;100056.00;5095130;28;20049;-66
2023/08/31 01:54:31;;;;;;;;;;;;;;;23.05;34.42;100053.81;5094136;28;19923;-66
2023/08/31 01:56:57;;;;;;;;;;;;;;;23.10;34.17;100051.03;5116083;28;19922;-66
2023/08/31 01:59:22;;;;;;;;;;;;;;;23.13;34.08;100051.28;5116577;28;19941;-67
2023/08/31 02:01:47;;;;;;;;;;;;;;;23.15;34.33;100049.06;5110823;28;19923;-66
2023/08/31 02:04:12;;;;;;;;;;;;;;;23.14;34.32;100052.09;5095724;28;19931;-67
2023/08/31 02:06:38;;;;;;;;;;;;;;;23.14;34.24;100047.44;5097922;28;19999;-66
2023/08/31 02:09:03;;;;;;;;;;;;;;;23.21;34.40;100052.56;5097230;28;19916;-66
2023/08/31 02:11:28;;;;;;;;;;;;;;;23.19;34.34;100050.13;5096181;28;19919;-67
2023/08/31 02:13:54;;;;;;;;;;;;;;;23.15;34.30;100040.84;5095571;28;19912;-67
2023/08/31 02:16:19;;;;;;;;;;;;;;;23.12;34.27;100040.59;5095258;28;20006;-67
2023/08/31 02:18:44;;;;;;;;;;;;;;;23.10;34.16;100042.81;5095594;28;19912;-67
2023/08/31 02:21:10;;;;;;;;;;;;;;;23.05;34.37;100042.84;5095606;28;19999;-66
2023/08/31 02:23:35;;;;;;;;;;;;;;;23.03;34.57;100043.13;5095490;28;20425;-66
2023/08/31 02:26:00;;;;;;;;;;;;;;;23.02;34.70;100041.50;5095214;28;19923;-66
2023/08/31 02:28:25;;;;;;;;;;;;;;;22.99;34.72;100033.84;5095577;28;19912;-67
2023/08/31 02:31:01;;;;;;;;;;;;;;;22.98;34.85;100034.97;5095669;28;19912;-66
2023/08/31 02:33:26;;;;;;;;;;;;;;;23.00;34.34;100030.00;5094409;28;19916;-66
2023/08/31 02:35:53;;;;;;;;;;;;;;;23.00;34.53;100038.22;5095296;28;19918;-67
2023/08/31 02:38:18;;;;;;;;;;;;;;;22.95;34.41;100043.75;5095253;28;20074;-67
2023/08/31 02:40:45;;;;;;;;;;;;;;;22.94;34.41;100047.59;5095199;28;20014;-66
2023/08/31 02:43:11;;;;;;;;;;;;;;;22.91;34.60;100048.97;5095278;28;20345;-67
2023/08/31 02:45:36;;;;;;;;;;;;;;;22.93;34.65;100054.97;5095321;28;20030;-66
2023/08/31 02:48:03;;;;;;;;;;;;;;;22.94;34.75;100048.41;5095514;28;19973;-67
2023/08/31 02:50:28;;;;;;;;;;;;;;;22.95;34.69;100049.22;5095158;28;19912;-66
2023/08/31 02:52:54;;;;;;;;;;;;;;;22.96;34.66;100042.66;5093633;28;19919;-67
2023/08/31 02:55:19;;;;;;;;;;;;;;;23.00;34.43;100046.44;5089266;28;19916;-67
2023/08/31 02:57:44;;;;;;;;;;;;;;;23.00;34.55;100041.78;5115359;28;19950;-67
2023/08/31 03:00:12;;;;;;;;;;;;;;;23.02;34.81;100049.72;5114247;28;20233;-66
2023/08/31 03:02:38;;;;;;;;;;;;;;;22.99;34.81;100051.13;5102549;28;19970;-66
2023/08/31 03:05:03;;;;;;;;;;;;;;;22.98;34.74;100052.19;5094759;28;19920;-67
2023/08/31 03:07:29;;;;;;;;;;;;;;;22.94;34.67;100050.34;5095112;28;19912;-66
2023/08/31 03:09:54;;;;;;;;;;;;;;;22.95;34.51;100041.81;5095189;28;19912;-67
2023/08/31 03:12:20;;;;;;;;;;;;;;;22.98;34.85;100052.19;5094526;28;20006;-66
2023/08/31 03:14:45;;;;;;;;;;;;;;;22.96;35.04;100053.59;5094541;28;19912;-66
2023/08/31 03:17:10;;;;;;;;;;;;;;;22.95;35.03;100046.47;5094766;28;19915;-66
2023/08/31 03:19:35;;;;;;;;;;;;;;;22.90;34.86;100044.63;5094737;28;20060;-66
2023/08/31 03:22:01;;;;;;;;;;;;;;;22.93;34.88;100054.97;5089019;28;19916;-66
2023/08/31 03:24:26;;;;;;;;;;;;;;;22.98;34.85;100054.13;5093866;28;20458;-66
2023/08/31 03:26:51;;;;;;;;;;;;;;;22.99;34.67;100051.13;5094416;28;19919;-66
2023/08/31 03:29:17;;;;;;;;;;;;;;;22.96;34.72;100050.88;5094080;28;19931;-66
2023/08/31 03:31:42;;;;;;;;;;;;;;;22.96;34.57;100051.66;5094209;28;20030;-66
2023/08/31 03:34:07;;;;;;;;;;;;;;;22.97;34.77;100055.22;5094217;28;20389;-66
2023/08/31 03:36:32;;;;;;;;;;;;;;;22.97;34.75;100049.75;5094408;28;19912;-66
2023/08/31 03:38:58;;;;;;;;;;;;;;;22.99;34.77;100048.38;5094525;28;19940;-66
2023/08/31 03:41:24;;;;;;;;;;;;;;;22.99;34.88;100050.28;5094192;28;19912;-66
2023/08/31 03:43:49;;;;;;;;;;;;;;;22.97;34.34;100047.00;5092906;28;19954;-66
2023/08/31 03:46:15;;;;;;;;;;;;;;;22.92;34.36;100039.66;5094243;28;19912;-66
2023/08/31 03:48:40;;;;;;;;;;;;;;;22.93;34.56;100038.53;5093016;28;19912;-66
2023/08/31 03:51:05;;;;;;;;;;;;;;;22.91;34.63;100043.50;5094158;28;20374;-66
2023/08/31 03:53:30;;;;;;;;;;;;;;;22.91;34.46;100042.69;5094002;28;19916;-66
2023/08/31 03:55:56;;;;;;;;;;;;;;;22.89;34.51;100034.75;5104475;28;20024;-66
2023/08/31 03:58:21;;;;;;;;;;;;;;;22.94;34.76;100039.38;5114222;28;19912;-66
2023/08/31 04:00:49;;;;;;;;;;;;;;;22.85;34.90;100041.09;5077915;28;19928;-66
2023/08/31 04:03:15;;;;;;;;;;;;;;;22.78;35.13;100042.22;5073202;28;20003;-66
2023/08/31 04:05:40;;;;;;;;;;;;;;;22.79;34.58;100043.06;5074581;28;20070;-66
2023/08/31 04:08:06;;;;;;;;;;;;;;;22.80;34.51;100045.50;5093884;28;19912;-66
2023/08/31 04:10:32;;;;;;;;;;;;;;;22.78;34.82;100046.88;5091897;28;19919;-66
2023/08/31 04:12:57;;;;;;;;;;;;;;;22.79;34.69;100054.81;5073667;28;19916;-66
2023/08/31 04:15:23;;;;;;;;;;;;;;;22.85;34.83;100052.06;5073389;28;20365;-66
2023/08/31 04:17:49;;;;;;;;;;;;;;;22.91;34.65;100053.63;5093720;28;19916;-66
2023/08/31 04:20:15;;;;;;;;;;;;;;;22.91;34.59;100054.44;5093874;28;20255;-67
2023/08/31 04:22:40;;;;;;;;;;;;;;;22.87;34.64;100045.16;5093872;28;19912;-66
2023/08/31 04:25:05;;;;;;;;;;;;;;;22.85;34.85;100047.38;5093312;28;19923;-66
2023/08/31 04:27:31;;;;;;;;;;;;;;;22.86;34.92;100045.47;5093759;28;20006;-66
2023/08/31 04:30:00;;;;;;;;;;;;;;;22.84;35.08;100040.25;5093623;28;19938;-66
2023/08/31 04:32:25;;;;;;;;;;;;;;;22.83;35.00;100041.38;5093197;28;20425;-66
2023/08/31 04:34:51;;;;;;;;;;;;;;;22.88;34.76;100045.97;5092467;28;19912;-66
2023/08/31 04:37:16;;;;;;;;;;;;;;;22.86;35.07;100046.25;5093410;28;20298;-66
2023/08/31 04:39:42;;;;;;;;;;;;;;;22.89;34.91;100039.41;5092043;28;20397;-66
2023/08/31 04:42:07;;;;;;;;;;;;;;;22.93;34.85;100044.03;5093239;28;19916;-66
2023/08/31 04:44:32;;;;;;;;;;;;;;;22.92;34.73;100042.41;5093017;28;19920;-66
2023/08/31 04:46:57;;;;;;;;;;;;;;;22.94;34.75;100034.72;5092978;28;19948;-66
2023/08/31 04:49:23;;;;;;;;;;;;;;;22.91;34.86;100038.00;5093043;28;19961;-66
2023/08/31 04:51:48;;;;;;;;;;;;;;;22.90;34.94;100036.41;5093395;28;19959;-66
2023/08/31 04:54:13;;;;;;;;;;;;;;;22.85;34.96;100041.91;5092460;28;19961;-66
2023/08/31 04:56:39;;;;;;;;;;;;;;;22.77;35.07;100037.88;5109853;28;20370;-66
2023/08/31 04:59:04;;;;;;;;;;;;;;;22.76;35.02;100049.09;5099768;28;20412;-66
2023/08/31 05:01:29;;;;;;;;;;;;;;;22.76;34.99;100049.09;5089786;28;20404;-66
2023/08/31 05:03:55;;;;;;;;;;;;;;;22.75;35.09;100041.97;5090130;28;19928;-66
2023/08/31 05:06:22;;;;;;;;;;;;;;;22.74;35.28;100046.63;5092005;28;21280;-66
2023/08/31 05:08:48;;;;;;;;;;;;;;;22.74;35.14;100037.63;5092842;28;20007;-66
2023/08/31 05:11:13;;;;;;;;;;;;;;;22.73;35.31;100036.81;5092387;28;19916;-66
2023/08/31 05:13:41;;;;;;;;;;;;;;;22.75;34.93;100039.22;5092422;28;19991;-65
2023/08/31 05:16:07;;;;;;;;;;;;;;;22.75;35.11;100039.22;5092495;28;20331;-66
2023/08/31 05:18:32;;;;;;;;;;;;;;;22.74;34.86;100041.16;5092252;28;19994;-66
2023/08/31 05:20:58;;;;;;;;;;;;;;;22.74;35.23;100043.09;5092431;28;19961;-66
2023/08/31 05:23:23;;;;;;;;;;;;;;;22.75;34.91;100034.59;5092745;28;19920;-66
2023/08/31 05:25:49;;;;;;;;;;;;;;;22.82;35.20;100037.00;5092746;28;19916;-66
2023/08/31 05:28:14;;;;;;;;;;;;;;;22.85;35.16;100047.38;5092545;28;19966;-66
2023/08/31 05:30:52;;;;;;;;;;;;;;;22.93;35.05;100049.50;5092543;28;19912;-66
2023/08/31 05:33:17;;;;;;;;;;;;;;;22.95;35.10;100047.28;5092646;28;19959;-66
2023/08/31 05:35:43;;;;;;;;;;;;;;;22.96;34.85;100050.88;5092942;28;20227;-66
2023/08/31 05:38:08;;;;;;;;;;;;;;;22.99;35.17;100048.38;5092546;28;20435;-66
2023/08/31 05:40:34;;;;;;;;;;;;;;;22.96;34.90;100048.94;5092654;28;19973;-66
2023/08/31 05:42:59;;;;;;;;;;;;;;;23.00;34.95;100049.19;5092436;28;19961;-66
2023/08/31 05:45:24;;;;;;;;;;;;;;;23.02;35.23;100044.22;5092425;28;19916;-66
2023/08/31 05:47:49;;;;;;;;;;;;;;;23.06;35.10;100047.25;5090987;28;19912;-66
2023/08/31 05:50:15;;;;;;;;;;;;;;;23.08;34.80;100051.31;5092512;28;20010;-66
2023/08/31 05:52:43;;;;;;;;;;;;;;;23.10;34.92;100053.78;5092796;28;19970;-66
2023/08/31 05:55:09;;;;;;;;;;;;;;;23.09;35.03;100050.22;5096128;28;19911;-66
2023/08/31 05:57:34;;;;;;;;;;;;;;;23.11;35.08;100058.97;5109460;28;20299;-66
2023/08/31 05:59:59;;;;;;;;;;;;;;;23.16;35.11;100049.88;5092222;28;19918;-67
2023/08/31 06:02:25;;;;;;;;;;;;;;;23.14;35.18;100052.94;5081909;28;19999;-66
2023/08/31 06:04:50;;;;;;;;;;;;;;;23.15;34.90;100049.06;5087898;28;20311;-66
2023/08/31 06:07:15;;;;;;;;;;;;;;;23.19;35.01;100058.34;5072654;28;20009;-66
2023/08/31 06:09:41;;;;;;;;;;;;;;;23.24;34.95;100053.94;5093587;28;19939;-66
2023/08/31 06:12:06;;;;;;;;;;;;;;;23.30;34.78;100056.31;5075816;28;19917;-66
2023/08/31 06:14:32;;;;;;;;;;;;;;;23.35;34.74;100055.47;5076041;28;19993;-66
2023/08/31 06:16:58;;;;;;;;;;;;;;;23.38;34.81;100055.72;5078190;28;20376;-66
2023/08/31 06:19:23;;;;;;;;;;;;;;;23.42;34.78;100064.19;5095877;28;19916;-66
2023/08/31 06:21:48;;;;;;;;;;;;;;;23.44;34.56;100064.72;5095763;28;19916;-66
2023/08/31 06:24:14;;;;;;;;;;;;;;;23.46;34.73;100057.00;5095916;28;19916;-66
2023/08/31 06:26:39;;;;;;;;;;;;;;;23.47;34.89;100060.56;5095875;28;19912;-65
2023/08/31 06:29:05;;;;;;;;;;;;;;;23.51;34.86;100058.88;5095867;28;19912;-66
2023/08/31 06:31:30;;;;;;;;;;;;;;;23.54;34.76;100058.28;5095932;27;19919;-67
2023/08/31 06:33:55;;;;;;;;;;;;;;;23.55;35.01;100066.22;5095846;28;20475;-66
2023/08/31 06:36:20;;;;;;;;;;;;;;;23.56;34.66;100059.63;5095585;28;20005;-66
2023/08/31 06:38:46;;;;;;;;;;;;;;;23.61;34.72;100061.50;5095746;28;20280;-66
2023/08/31 06:41:11;;;;;;;;;;;;;;;23.64;34.72;100071.06;5095554;28;19912;-66
2023/08/31 06:43:36;;;;;;;;;;;;;;;23.71;34.51;100072.34;5095385;28;20395;-67
2023/08/31 06:46:02;;;;;;;;;;;;;;;23.76;34.62;100072.31;5095210;28;20000;-67
2023/08/31 06:48:27;;;;;;;;;;;;;;;23.82;34.54;100075.84;5095424;28;20002;-67
2023/08/31 06:50:52;;;;;;;;;;;;;;;23.86;34.51;100076.06;5095469;28;19912;-67
2023/08/31 06:53:17;;;;;;;;;;;;;;;23.86;34.38;100074.13;5095542;28;20449;-67
2023/08/31 06:55:43;;;;;;;;;;;;;;;23.91;34.33;100079.56;5103599;28;19915;-67
2023/08/31 06:58:08;;;;;;;;;;;;;;;23.98;34.33;100075.66;5096846;28;19916;-67
2023/08/31 07:00:33;;;;;;;;;;;;;;;23.99;34.62;100080.84;5092191;28;19912;-67
2023/08/31 07:02:59;;;;;;;;;;;;;;;24.04;34.35;100069.81;5079657;28;19913;-67
2023/08/31 07:05:25;;;;;;;;;;;;;;;24.07;34.35;100071.97;5075032;28;19921;-67
2023/08/31 07:07:56;;;;;;;;;;;;;;;24.13;34.48;100070.00;5075156;28;19920;-67
2023/08/31 07:10:22;;;;;;;;;;;;;;;24.17;34.51;100075.72;5074877;28;19919;-67
2023/08/31 07:12:47;;;;;;;;;;;;;;;24.17;34.41;100071.03;5074258;28;20007;-67
2023/08/31 07:15:12;;;;;;;;;;;;;;;24.24;34.36;100074.22;5086995;28;19920;-65
2023/08/31 07:17:37;;;;;;;;;;;;;;;24.29;34.42;100076.06;5094827;28;19912;-67
2023/08/31 07:20:05;;;;;;;;;;;;;;;24.34;34.21;100076.81;5093458;28;19912;-67
2023/08/31 07:22:32;;;;;;;;;;;;;;;24.39;34.20;100078.69;5093196;28;19919;-67
2023/08/31 07:24:58;;;;;;;;;;;;;;;24.40;34.37;100080.31;5094200;28;19924;-67
2023/08/31 07:27:23;;;;;;;;;;;;;;;24.41;34.31;100083.91;5094631;28;19966;-67
2023/08/31 07:29:48;;;;;;;;;;;;;;;24.41;34.06;100084.69;5093326;28;20376;-68
2023/08/31 07:32:13;;;;;;;;;;;;;;;24.41;34.15;100087.44;5094474;28;20060;-68
2023/08/31 07:34:39;;;;;;;;;;;;;;;24.48;34.06;100079.66;5093163;28;19920;-67
2023/08/31 07:37:04;;;;;;;;;;;;;;;24.53;33.87;100087.03;5094527;28;20302;-67
2023/08/31 07:39:29;;;;;;;;;;;;;;;24.57;34.25;100079.03;5094221;28;20364;-67
2023/08/31 07:41:55;;;;;;;;;;;;;;;24.58;34.07;100086.97;5093986;28;19919;-67
2023/08/31 07:44:21;;;;;;;;;;;;;;;24.67;33.87;100081.63;5093967;28;19916;-68
2023/08/31 07:46:46;;;;;;;;;;;;;;;24.66;33.62;100078.03;5094082;28;19919;-68
2023/08/31 07:49:13;;;;;;;;;;;;;;;24.78;33.86;100087.78;5094303;28;19922;-67
2023/08/31 07:51:38;;;;;;;;;;;;;;;24.84;33.79;100081.91;5094179;28;19912;-67
2023/08/31 07:54:04;;;;;;;;;;;;;;;24.89;33.75;100081.03;5093343;28;20332;-68
2023/08/31 07:56:29;;;;;;;;;;;;;;;24.88;33.91;100077.44;5095046;28;19919;-68
2023/08/31 07:58:54;;;;;;;;;;;;;;;24.95;33.45;100074.31;5075937;28;20331;-68
2023/08/31 08:01:19;;;;;;;;;;;;;;;24.94;33.67;100080.91;5072996;28;20014;-68
2023/08/31 08:03:45;;;;;;;;;;;;;;;25.04;33.87;100072.53;5073264;28;19921;-67
2023/08/31 08:06:10;;;;;;;;;;;;;;;25.15;33.83;100067.69;5073727;28;19920;-67
2023/08/31 08:08:35;;;;;;;;;;;;;;;25.25;33.56;100067.50;5073569;28;20035;-68
2023/08/31 08:11:02;;;;;;;;;;;;;;;25.30;33.84;100063.88;5082040;28;20387;-68
2023/08/31 08:13:27;;;;;;;;;;;;;;;25.29;33.95;100070.47;5093733;28;19915;-68
2023/08/31 08:15:53;;;;;;;;;;;;;;;25.38;33.66;100073.34;5093900;28;20263;-66
2023/08/31 08:18:18;;;;;;;;;;;;;;;25.43;33.33;100078.78;5093123;28;19923;-66
2023/08/31 08:20:46;;;;;;;;;;;;;;;25.50;33.65;100069.00;5093531;28;19918;-66
2023/08/31 08:23:13;;;;;;;;;;;;;;;25.57;33.23;100082.34;5093643;28;19912;-66
2023/08/31 08:25:38;;;;;;;;;;;;;;;25.71;33.49;100078.81;5093132;28;19916;-66
2023/08/31 08:28:03;;;;;;;;;;;;;;;25.65;33.05;100086.34;5093536;28;19919;-66
2023/08/31 08:30:29;;;;;;;;;;;;;;;25.71;32.71;100078.81;5092943;28;19912;-66
2023/08/31 08:32:54;;;;;;;;;;;;;;;25.77;32.71;100085.84;5093504;28;20356;-67
2023/08/31 08:35:20;;;;;;;;;;;;;;;25.83;32.83;100079.91;5093182;28;19935;-66
2023/08/31 08:37:45;;;;;;;;;;;;;;;25.89;33.16;100078.72;5093204;28;20478;-66
2023/08/31 08:40:10;;;;;;;;;;;;;;;26.03;32.52;100075.97;5093192;28;20288;-66
2023/08/31 08:42:41;;;;;;;;;;;;;;;26.17;32.73;100075.97;5092918;28;19912;-67
2023/08/31 08:45:15;;;;;;;;;;;;;;;26.07;32.60;100073.41;5093080;28;20326;-66
2023/08/31 08:47:40;;;;;;;;;;;;;;;26.17;32.51;100080.63;5093019;28;19912;-67
2023/08/31 08:50:06;;;;;;;;;;;;;;;26.21;32.45;100078.91;5093029;28;19935;-67
2023/08/31 08:52:31;;;;;;;;;;;;;;;26.31;32.24;100081.44;5093244;28;19958;-67
2023/08/31 08:54:57;;;;;;;;;;;;;;;26.36;32.79;100075.03;5094704;28;19916;-67
2023/08/31 08:57:22;;;;;;;;;;;;;;;26.39;32.43;100080.72;5113313;28;19918;-67
2023/08/31 08:59:48;;;;;;;;;;;;;;;26.33;31.81;100084.69;5112328;28;20010;-67
2023/08/31 09:02:13;;;;;;;;;;;;;;;26.42;31.86;100082.84;5076271;28;19920;-67
2023/08/31 09:04:38;;;;;;;;;;;;;;;26.57;32.27;100078.13;5072687;28;19924;-67
2023/08/31 09:07:04;;;;;;;;;;;;;;;26.65;32.28;100066.38;5079350;28;20296;-67
2023/08/31 09:09:29;;;;;;;;;;;;;;;26.72;32.38;100074.22;5092520;28;19919;-67
2023/08/31 09:11:55;;;;;;;;;;;;;;;26.82;32.19;100074.00;5092559;28;19912;-67
2023/08/31 09:14:21;;;;;;;;;;;;;;;26.85;32.04;100073.34;5092733;28;20014;-67
2023/08/31 09:16:48;;;;;;;;;;;;;;;26.89;31.98;100071.59;5091379;28;19998;-67
2023/08/31 09:19:18;;;;;;;;;;;;;;;27.09;31.77;100063.97;5091408;28;19916;-67
2023/08/31 09:21:45;;;;;;;;;;;;;;;27.11;31.96;100059.75;5092291;28;19959;-67
2023/08/31 09:24:10;;;;;;;;;;;;;;;27.12;32.17;100055.88;5084239;28;19917;-67
2023/08/31 09:26:39;;;;;;;;;;;;;;;27.23;31.57;100056.44;5091016;28;19923;-67
2023/08/31 09:29:05;;;;;;;;;;;;;;;27.26;31.18;100055.81;5074442;28;20305;-67
2023/08/31 09:31:31;;;;;;;;;;;;;;;27.33;31.25;100052.63;5072446;28;19967;-67
2023/08/31 09:33:56;;;;;;;;;;;;;;;27.40;31.55;100050.22;5088371;28;19939;-67
2023/08/31 09:36:26;;;;;;;;;;;;;;;27.61;31.22;100062.31;5092719;28;19912;-67
2023/08/31 09:38:51;;;;;;;;;;;;;;;27.71;31.45;100061.25;5091325;28;20388;-67
2023/08/31 09:41:16;;;;;;;;;;;;;;;27.72;30.38;100062.03;5093095;28;19920;-67
2023/08/31 09:43:42;;;;;;;;;;;;;;;27.75;30.66;100064.19;5096224;28;19912;-67
2023/08/31 09:46:08;;;;;;;;;;;;;;;27.59;31.34;100069.28;5096662;28;20304;-67
2023/08/31 09:48:37;;;;;;;;;;;;;;;27.80;31.11;100061.25;5096402;28;19912;-67
2023/08/31 09:51:03;;;;;;;;;;;;;;;27.90;30.66;100052.72;5096435;28;20359;-67
2023/08/31 09:53:30;;;;;;;;;;;;;;;28.03;31.03;100059.25;5096197;28;19966;-67
2023/08/31 09:55:56;;;;;;;;;;;;;;;28.10;30.75;100062.38;5106660;28;19912;-67
2023/08/31 09:58:21;;;;;;;;;;;;;;;28.07;30.51;100060.22;5116578;28;19911;-67
2023/08/31 10:00:48;;;;;;;;;;;;;;;28.20;30.38;100055.72;5116572;28;19915;-67
2023/08/31 10:03:15;;;;;;;;;;;;;;;28.42;30.29;100059.47;5098335;28;20440;-68
2023/08/31 10:05:40;;;;;;;;;;;;;;;28.55;30.23;100053.03;5096176;28;19967;-68
2023/08/31 10:08:07;;;;;;;;;;;;;;;28.70;30.93;100057.25;5095702;28;19994;-67
2023/08/31 10:10:33;;;;;;;;;;;;;;;28.86;29.94;100055.63;5095750;28;20377;-67
2023/08/31 10:12:59;;;;;;;;;;;;;;;28.99;30.59;100050.22;5096192;28;20003;-68
2023/08/31 10:15:26;;;;;;;;;;;;;;;29.26;30.07;100058.16;5095838;28;19912;-67
2023/08/31 10:17:51;;;;;;;;;;;;;;;29.36;29.31;100050.66;5095926;28;19912;-67
2023/08/31 10:20:17;;;;;;;;;;;;;;;29.43;29.61;100049.00;5095771;28;19919;-67
2023/08/31 10:22:42;;;;;;;;;;;;;;;29.68;30.56;100041.75;5082906;28;19916;-67
2023/08/31 10:25:08;;;;;;;;;;;;;;;29.84;29.92;100044.75;5075440;28;19916;-67
2023/08/31 10:27:41;;;;;;;;;;;;;;;29.97;29.31;100042.91;5075443;28;19919;-67
2023/08/31 10:30:14;;;;;;;;;;;;;;;30.23;28.92;100045.50;5075596;28;19919;-67
2023/08/31 10:32:39;;;;;;;;;;;;;;;30.49;27.73;100037.03;5075358;28;19912;-67
2023/08/31 10:35:05;;;;;;;;;;;;;;;30.61;28.55;100041.00;5075614;28;19919;-67
2023/08/31 10:37:30;;;;;;;;;;;;;;;30.63;27.49;100038.72;5075557;28;19913;-67
2023/08/31 10:40:14;;;;;;;;;;;;;;;30.74;27.50;100039.09;5080727;28;19912;-67
2023/08/31 10:42:47;;;;;;;;;;;;;;;30.92;27.46;100032.25;5094100;28;19918;-67
2023/08/31 10:45:12;;;;;;;;;;;;;;;31.06;27.35;100038.31;5095195;28;20391;-67
2023/08/31 10:47:39;;;;;;;;;;;;;;;31.21;26.72;100025.75;5095303;28;19916;-67
2023/08/31 10:50:21;;;;;;;;;;;;;;;31.26;27.14;100035.84;5094983;28;20431;-67
2023/08/31 10:52:46;;;;;;;;;;;;;;;31.35;26.69;100031.00;5095160;28;19969;-67
2023/08/31 10:55:12;;;;;;;;;;;;;;;31.58;27.69;100030.59;5099044;28;20387;-67
2023/08/31 10:57:39;;;;;;;;;;;;;;;31.68;26.64;100020.97;5115504;28;19992;-67
2023/08/31 11:00:05;;;;;;;;;;;;;;;31.69;26.71;100020.63;5104295;28;20317;-67
2023/08/31 11:02:34;;;;;;;;;;;;;;;31.94;26.82;100026.16;5094964;28;19912;-67
2023/08/31 11:05:09;;;;;;;;;;;;;;;32.04;25.26;100022.97;5094896;28;19924;-67
2023/08/31 11:07:36;;;;;;;;;;;;;;;32.21;26.72;100011.56;5094898;28;19923;-67
2023/08/31 11:10:12;;;;;;;;;;;;;;;32.43;25.66;100014.97;5094909;28;20275;-67
2023/08/31 11:12:38;;;;;;;;;;;;;;;32.57;27.25;100012.63;5094921;28;19916;-67
2023/08/31 11:15:04;;;;;;;;;;;;;;;32.53;23.52;100013.66;5094927;28;19912;-67
2023/08/31 11:17:29;;;;;;;;;;;;;;;32.58;24.06;100013.44;5094720;28;19980;-67
2023/08/31 11:19:56;;;;;;;;;;;;;;;32.71;25.89;100014.22;5094752;28;19912;-67
2023/08/31 11:22:21;;;;;;;;;;;;;;;32.81;26.27;100007.31;5095086;28;20257;-67
2023/08/31 11:24:46;;;;;;;;;;;;;;;32.82;24.90;100008.91;5094709;28;19942;-67
2023/08/31 11:27:11;;;;;;;;;;;;;;;32.83;24.94;100002.22;5094498;28;19916;-67
2023/08/31 11:29:37;;;;;;;;;;;;;;;32.72;25.07;99996.34;5093301;28;19946;-67
2023/08/31 11:32:03;;;;;;;;;;;;;;;32.84;25.44;99989.91;5094544;28;19912;-67
2023/08/31 11:34:28;;;;;;;;;;;;;;;32.96;24.64;99990.63;5094514;28;19912;-68
2023/08/31 11:36:54;;;;;;;;;;;;;;;33.20;25.46;99994.47;5094312;28;19919;-67
2023/08/31 11:39:19;;;;;;;;;;;;;;;33.28;23.52;99996.25;5094563;28;19923;-67
2023/08/31 11:41:44;;;;;;;;;;;;;;;33.31;24.31;99991.97;5094219;28;20421;-67
2023/08/31 11:44:13;;;;;;;;;;;;;;;33.60;24.18;99998.22;5093851;28;19919;-67
2023/08/31 11:46:39;;;;;;;;;;;;;;;33.50;22.95;99994.00;5077545;28;19916;-67
2023/08/31 11:49:06;;;;;;;;;;;;;;;33.81;23.16;99995.97;5073907;28;19913;-67
2023/08/31 11:51:32;;;;;;;;;;;;;;;33.86;22.06;100001.28;5077065;28;19970;-67
2023/08/31 11:53:59;;;;;;;;;;;;;;;34.08;22.19;99991.41;5093794;28;19955;-67
2023/08/31 11:56:24;;;;;;;;;;;;;;;34.24;21.08;99993.34;5096880;28;19916;-67
2023/08/31 11:58:53;;;;;;;;;;;;;;;34.49;22.87;99993.84;5094010;28;19934;-67
2023/08/31 12:01:20;;;;;;;;;;;;;;;34.68;22.16;99993.09;5093954;28;19920;-68
2023/08/31 12:03:47;;;;;;;;;;;;;;;34.89;21.74;99987.91;5093576;28;19928;-68
2023/08/31 12:06:15;;;;;;;;;;;;;;;35.05;20.76;100000.94;5092730;28;19916;-68
2023/08/31 12:08:41;;;;;;;;;;;;;;;34.92;21.43;99989.16;5093916;28;19918;-68
2023/08/31 12:11:06;;;;;;;;;;;;;;;34.94;21.20;99991.56;5093713;28;19912;-68
2023/08/31 12:13:32;;;;;;;;;;;;;;;34.92;21.37;99997.53;5092450;28;19912;-68
2023/08/31 12:15:57;;;;;;;;;;;;;;;34.77;21.56;99987.25;5092412;28;19916;-67
2023/08/31 12:18:23;;;;;;;;;;;;;;;34.85;22.64;99994.59;5093570;28;20420;-67
2023/08/31 12:20:52;;;;;;;;;;;;;;;34.90;21.51;99992.31;5093465;28;19943;-67
2023/08/31 12:23:19;;;;;;;;;;;;;;;34.90;21.77;99989.53;5092152;28;20432;-67
2023/08/31 12:25:51;;;;;;;;;;;;;;;35.03;21.60;99984.56;5093710;28;19981;-67
2023/08/31 12:28:17;;;;;;;;;;;;;;;35.16;21.11;99981.56;5093662;28;19912;-67
2023/08/31 12:30:46;;;;;;;;;;;;;;;35.34;20.15;99993.88;5093064;28;19919;-68
2023/08/31 12:33:11;;;;;;;;;;;;;;;35.18;20.69;99991.25;5092974;28;20372;-68